Alden, New York
Current Conditions -  °F | °C
As of 5:54 PM on Thursday 23 Oct 2014 (Local Time) from KBUF Reporting Station
Few Clouds Few Clouds  
Wind Chill: 14°   Ceiling: Unl
Heat Index: 14°   Visibility: 10mi
Dew Point:   Wind: 10mph
Humidity: 53%   Direction: 320°NW
Pressure: 30.04"   Gusts: NA
Location:  42.9°N, 78.49°W
Report Text: KBUF 232154Z 32009KT 10SM FEW045 14/04 A3004 RMK AO2 SLP174 T01390044
Loading
Personal Weather Stations






























Interactive Weather Map
Tropical Storm Tracking
New forecast layout! Learn more

10-Day Weather Forecast

Advertisements
Track Severe Weather on mobile